createdAt,value
2019-05-21T00:01:39.946Z,11.99
2019-05-21T00:04:09.031Z,11.98
2019-05-21T00:06:38.035Z,12.07
2019-05-21T00:12:02.376Z,11.94
2019-05-21T00:17:07.231Z,11.90
2019-05-21T00:19:36.026Z,11.90
2019-05-21T00:22:05.197Z,11.99
2019-05-21T00:24:34.690Z,11.87
2019-05-21T00:27:03.630Z,11.93
2019-05-21T00:30:11.575Z,11.94
2019-05-21T00:33:19.438Z,11.94
2019-05-21T00:36:27.784Z,11.97
2019-05-21T00:39:35.527Z,11.98
2019-05-21T00:42:22.424Z,11.90
2019-05-21T00:48:00.564Z,11.84
2019-05-21T00:53:24.743Z,11.82
2019-05-21T00:55:53.800Z,11.87
2019-05-21T00:58:22.801Z,11.86
2019-05-21T01:00:51.620Z,11.85
2019-05-21T01:03:20.838Z,11.84
2019-05-21T01:05:50.334Z,11.84
2019-05-21T01:08:18.971Z,11.87
2019-05-21T01:10:48.107Z,11.86
2019-05-21T01:13:17.138Z,11.87
2019-05-21T01:15:46.187Z,11.77
2019-05-21T01:18:15.495Z,11.77
2019-05-21T01:20:44.775Z,11.83
2019-05-21T01:23:14.050Z,11.80
2019-05-21T01:25:42.608Z,11.81
2019-05-21T01:28:11.646Z,11.80
2019-05-21T01:30:40.851Z,11.77
2019-05-21T01:33:09.530Z,11.78
2019-05-21T01:35:57.527Z,11.88
2019-05-21T01:38:26.261Z,11.80
2019-05-21T01:40:55.482Z,11.88
2019-05-21T01:43:24.735Z,11.86
2019-05-21T01:45:53.653Z,11.91
2019-05-21T01:48:22.782Z,11.89
2019-05-21T01:51:10.804Z,11.90
2019-05-21T01:53:39.794Z,11.92
2019-05-21T01:56:08.447Z,11.88
2019-05-21T01:58:37.795Z,11.85
2019-05-21T02:01:07.324Z,11.85
2019-05-21T02:03:36.417Z,11.88
2019-05-21T02:06:05.753Z,11.80
2019-05-21T02:08:34.901Z,11.80
2019-05-21T02:11:03.642Z,11.80
2019-05-21T02:13:32.660Z,11.82
2019-05-21T02:16:01.422Z,11.80
2019-05-21T02:18:30.201Z,11.78
2019-05-21T02:20:59.267Z,11.76
2019-05-21T02:23:28.442Z,11.67
2019-05-21T02:25:57.087Z,11.77
2019-05-21T02:28:26.366Z,11.76
2019-05-21T02:30:56.680Z,11.77
2019-05-21T02:33:25.948Z,11.78
2019-05-21T02:35:55.296Z,11.75
2019-05-21T02:38:25.361Z,11.77
2019-05-21T02:40:54.725Z,11.61
2019-05-21T02:43:42.902Z,11.54
2019-05-21T02:46:31.083Z,11.66
2019-05-21T02:51:48.263Z,11.50
2019-05-21T02:54:17.555Z,11.55
2019-05-21T02:56:46.968Z,11.52
2019-05-21T02:59:16.237Z,11.44
2019-05-21T03:04:21.348Z,11.35
2019-05-21T03:06:50.361Z,11.41
2019-05-21T03:09:19.558Z,11.39
2019-05-21T03:11:48.952Z,11.46
2019-05-21T03:14:18.152Z,11.39
2019-05-21T03:16:47.307Z,11.44
2019-05-21T03:19:16.859Z,11.35
2019-05-21T03:21:47.112Z,11.38
2019-05-21T03:24:16.120Z,11.29
2019-05-21T03:29:24.886Z,11.27
2019-05-21T03:31:54.598Z,11.21
2019-05-21T03:37:13.031Z,11.24
2019-05-21T03:39:41.678Z,11.33
2019-05-21T03:42:10.999Z,11.25
2019-05-21T03:45:01.247Z,11.30
2019-05-21T03:47:31.021Z,11.22
2019-05-21T03:49:59.721Z,11.17
2019-05-21T03:52:28.850Z,11.14
2019-05-21T03:54:57.497Z,11.25
2019-05-21T03:58:05.949Z,11.21
2019-05-21T04:00:35.098Z,11.27
2019-05-21T04:03:04.289Z,11.25
2019-05-21T04:05:32.996Z,11.17
2019-05-21T04:08:02.207Z,11.18
2019-05-21T04:13:08.450Z,11.16
2019-05-21T04:16:18.348Z,11.18
2019-05-21T04:21:36.447Z,11.11
2019-05-21T04:24:08.726Z,11.13
2019-05-21T04:26:36.203Z,11.10
2019-05-21T04:29:04.841Z,11.17
2019-05-21T04:31:34.006Z,11.18
2019-05-21T04:34:03.439Z,11.18
2019-05-21T04:36:32.321Z,11.10
2019-05-21T04:39:00.961Z,11.14
2019-05-21T04:41:30.005Z,11.08
2019-05-21T04:43:59.240Z,11.09
2019-05-21T04:47:08.062Z,11.12
2019-05-21T04:49:36.632Z,11.11
2019-05-21T04:52:05.376Z,11.06
2019-05-21T04:54:34.116Z,11.05
2019-05-21T04:57:02.746Z,11.09
2019-05-21T04:59:31.370Z,11.06
2019-05-21T05:01:59.974Z,11.10
2019-05-21T05:04:28.618Z,11.05
2019-05-21T05:06:57.299Z,11.09
2019-05-21T05:12:15.153Z,11.08
2019-05-21T05:14:43.729Z,11.05
2019-05-21T05:17:12.476Z,11.06
2019-05-21T05:19:41.222Z,11.10
2019-05-21T05:22:09.828Z,11.05
2019-05-21T05:24:38.460Z,11.05
2019-05-21T05:27:07.171Z,11.06
2019-05-21T05:29:35.823Z,11.08
2019-05-21T05:32:04.466Z,11.00
2019-05-21T05:34:33.213Z,10.98
2019-05-21T05:37:01.833Z,11.00
2019-05-21T05:39:30.553Z,11.02
2019-05-21T05:41:59.317Z,10.98
2019-05-21T05:44:27.961Z,11.09
2019-05-21T05:46:56.650Z,11.09
2019-05-21T05:49:44.467Z,10.95
2019-05-21T05:52:13.182Z,10.99
2019-05-21T05:54:41.776Z,11.06
2019-05-21T05:57:10.425Z,11.00
2019-05-21T05:59:39.125Z,11.10
2019-05-21T06:02:07.886Z,11.06
2019-05-21T06:04:36.578Z,11.06
2019-05-21T06:07:05.229Z,11.03
2019-05-21T06:09:33.904Z,11.14
2019-05-21T06:12:02.600Z,10.93
2019-05-21T06:14:31.265Z,11.00
2019-05-21T06:16:59.834Z,10.94
2019-05-21T06:19:28.514Z,10.95
2019-05-21T06:21:57.164Z,10.99
2019-05-21T06:24:25.863Z,10.92
2019-05-21T06:26:54.503Z,10.99
2019-05-21T06:29:23.176Z,10.90
2019-05-21T06:31:51.851Z,10.86
2019-05-21T06:34:20.539Z,10.84
2019-05-21T06:36:49.181Z,10.89
2019-05-21T06:39:17.835Z,10.91
2019-05-21T06:41:46.526Z,10.90
2019-05-21T06:44:15.194Z,10.93
2019-05-21T06:46:43.876Z,10.89
2019-05-21T06:49:12.480Z,10.94
2019-05-21T06:51:41.246Z,10.98
2019-05-21T06:54:09.987Z,10.94
2019-05-21T06:56:38.627Z,10.91
2019-05-21T06:59:07.318Z,10.96
2019-05-21T07:01:35.965Z,10.96
2019-05-21T07:04:04.709Z,10.90
2019-05-21T07:06:33.369Z,10.91
2019-05-21T07:09:02.063Z,10.90
2019-05-21T07:11:30.728Z,10.87
2019-05-21T07:13:59.361Z,10.92
2019-05-21T07:16:28.007Z,10.88
2019-05-21T07:18:56.706Z,10.88
2019-05-21T07:21:25.489Z,10.89
2019-05-21T07:24:13.412Z,10.94
2019-05-21T07:26:42.423Z,10.93
2019-05-21T07:29:11.108Z,10.89
2019-05-21T07:31:39.873Z,10.96
2019-05-21T07:34:08.454Z,10.99
2019-05-21T07:36:37.144Z,10.92
2019-05-21T07:39:45.606Z,10.98
2019-05-21T07:42:14.099Z,11.01
2019-05-21T07:44:42.701Z,11.04
2019-05-21T07:47:11.393Z,11.02
2019-05-21T07:49:40.047Z,10.95
2019-05-21T07:52:08.726Z,10.99
2019-05-21T07:54:37.290Z,10.96
2019-05-21T07:57:05.907Z,10.93
2019-05-21T07:59:34.555Z,11.05
2019-05-21T08:02:03.235Z,11.08
2019-05-21T08:04:31.834Z,11.03
2019-05-21T08:07:00.496Z,11.04
2019-05-21T08:09:29.119Z,11.12
2019-05-21T08:11:57.740Z,11.14
2019-05-21T08:14:26.381Z,11.11
2019-05-21T08:16:55.061Z,11.23
2019-05-21T08:19:23.753Z,11.19
2019-05-21T08:21:52.406Z,11.27
2019-05-21T08:24:21.087Z,11.25
2019-05-21T08:26:49.777Z,11.21
2019-05-21T08:29:18.462Z,11.21
2019-05-21T08:31:47.175Z,11.28
2019-05-21T08:34:15.756Z,11.25
2019-05-21T08:36:44.363Z,11.25
2019-05-21T08:39:27.664Z,11.22
2019-05-21T08:41:43.438Z,11.22
2019-05-21T08:44:12.078Z,11.18
2019-05-21T08:46:40.779Z,11.17
2019-05-21T08:49:09.362Z,11.18
2019-05-21T08:51:57.230Z,11.22
2019-05-21T08:54:45.022Z,11.22
2019-05-21T08:57:13.712Z,11.18
2019-05-21T08:59:42.361Z,11.22
2019-05-21T09:02:11.050Z,11.23
2019-05-21T09:04:46.166Z,11.21
2019-05-21T09:10:44.374Z,11.17
2019-05-21T09:13:13.015Z,11.18
2019-05-21T09:15:41.706Z,11.29
2019-05-21T09:18:10.326Z,11.28
2019-05-21T09:20:39.127Z,11.37
2019-05-21T09:23:07.767Z,11.30
2019-05-21T09:25:36.417Z,11.36
2019-05-21T09:28:05.207Z,11.31
2019-05-21T09:30:33.828Z,11.43
2019-05-21T09:33:02.462Z,11.45
2019-05-21T09:35:31.166Z,11.52
2019-05-21T09:37:59.823Z,11.42
2019-05-21T09:43:29.637Z,11.34
2019-05-21T09:45:58.313Z,11.34
2019-05-21T09:48:26.983Z,11.45
2019-05-21T09:50:55.659Z,11.50
2019-05-21T09:53:24.304Z,11.52
2019-05-21T09:55:53.003Z,11.59
2019-05-21T10:06:22.405Z,11.47
2019-05-21T10:08:51.055Z,11.51
2019-05-21T10:11:19.748Z,11.36
2019-05-21T10:13:48.369Z,11.44
2019-05-21T10:16:16.917Z,11.48
2019-05-21T10:18:45.555Z,11.48
2019-05-21T10:21:14.206Z,11.49
2019-05-21T10:23:42.864Z,11.53
2019-05-21T10:26:11.546Z,11.66
2019-05-21T10:28:40.181Z,11.61
2019-05-21T10:31:08.862Z,11.67
2019-05-21T10:33:37.501Z,11.71
2019-05-21T10:36:45.945Z,11.68
2019-05-21T10:41:49.972Z,11.68
2019-05-21T10:44:18.644Z,11.70
2019-05-21T10:46:47.320Z,11.58
2019-05-21T10:49:15.964Z,11.71
2019-05-21T10:51:44.636Z,11.66
2019-05-21T10:54:13.277Z,11.67
2019-05-21T10:56:47.739Z,11.64
2019-05-21T10:59:12.334Z,11.70
2019-05-21T11:02:00.155Z,11.75
2019-05-21T11:09:48.412Z,11.72
2019-05-21T11:12:16.974Z,11.69
2019-05-21T11:14:45.751Z,11.60
2019-05-21T11:17:14.428Z,11.69
2019-05-21T11:19:43.015Z,11.64
2019-05-21T11:22:11.607Z,11.68
2019-05-21T11:24:40.307Z,11.66
2019-05-21T11:27:08.948Z,11.68
2019-05-21T11:29:37.714Z,11.74
2019-05-21T11:32:06.378Z,11.61
2019-05-21T11:34:35.072Z,11.73
2019-05-21T11:37:03.791Z,11.77
2019-05-21T11:39:32.512Z,11.77
2019-05-21T11:42:01.155Z,11.77
2019-05-21T11:44:29.846Z,11.80
2019-05-21T11:46:58.569Z,11.80
2019-05-21T11:49:27.269Z,11.87
2019-05-21T11:51:55.951Z,11.92
2019-05-21T11:54:24.584Z,11.94
2019-05-21T11:56:53.184Z,11.96
2019-05-21T11:59:21.884Z,11.96
2019-05-21T12:01:50.558Z,11.93
2019-05-21T12:04:19.258Z,11.92
2019-05-21T12:06:47.900Z,11.92
2019-05-21T12:09:16.517Z,11.87
2019-05-21T12:11:45.199Z,11.88
2019-05-21T12:14:13.824Z,12.13
2019-05-21T12:16:42.518Z,12.00
2019-05-21T12:19:11.219Z,12.02
2019-05-21T12:21:39.869Z,11.87
2019-05-21T12:24:08.561Z,11.85
2019-05-21T12:26:37.217Z,11.93
2019-05-21T12:29:05.876Z,11.96
2019-05-21T12:31:34.535Z,11.94
2019-05-21T12:34:03.153Z,11.93
2019-05-21T12:36:31.794Z,11.95
2019-05-21T12:39:13.573Z,11.95
2019-05-21T12:41:30.845Z,11.92
2019-05-21T12:43:59.543Z,11.90
2019-05-21T12:46:28.200Z,11.88
2019-05-21T12:48:56.848Z,11.93
2019-05-21T12:51:25.549Z,11.85
2019-05-21T12:53:54.190Z,11.97
2019-05-21T12:56:22.873Z,11.97
2019-05-21T12:58:51.451Z,11.96
2019-05-21T13:01:20.130Z,11.92
2019-05-21T13:03:48.691Z,12.09
2019-05-21T13:06:17.369Z,12.03
2019-05-21T13:08:46.084Z,11.99
2019-05-21T13:11:14.708Z,11.95
2019-05-21T13:13:43.393Z,11.93
2019-05-21T13:16:12.043Z,12.05
2019-05-21T13:18:40.809Z,12.06
2019-05-21T13:21:09.456Z,12.05
2019-05-21T13:23:38.105Z,12.04
2019-05-21T13:26:08.735Z,12.03
2019-05-21T13:28:37.256Z,12.08
2019-05-21T13:31:05.948Z,12.04
2019-05-21T13:33:34.623Z,12.02
2019-05-21T13:36:03.299Z,12.05
2019-05-21T13:38:31.973Z,11.97
2019-05-21T13:43:56.811Z,12.10
2019-05-21T13:46:25.465Z,12.20
2019-05-21T13:48:54.161Z,12.13
2019-05-21T13:51:22.846Z,12.09
2019-05-21T13:53:51.669Z,12.07
2019-05-21T13:56:20.363Z,12.06
2019-05-21T13:58:48.985Z,12.09
2019-05-21T14:01:41.186Z,12.07
2019-05-21T14:04:47.205Z,11.99
2019-05-21T14:07:15.848Z,12.06
2019-05-21T14:09:44.483Z,12.29
2019-05-21T14:14:48.659Z,12.12
2019-05-21T14:17:17.344Z,12.10
2019-05-21T14:19:46.021Z,12.26
2019-05-21T14:22:14.642Z,12.20
2019-05-21T14:24:43.295Z,12.09
2019-05-21T14:27:11.982Z,12.00
2019-05-21T14:29:40.717Z,12.07
2019-05-21T14:32:09.276Z,11.98
2019-05-21T14:34:37.865Z,12.01
2019-05-21T14:37:06.538Z,11.99
2019-05-21T14:39:35.233Z,12.04
2019-05-21T14:42:03.876Z,12.10
2019-05-21T14:44:32.559Z,11.99
2019-05-21T14:47:01.215Z,12.10
2019-05-21T14:49:29.902Z,11.99
2019-05-21T14:51:58.471Z,12.00
2019-05-21T14:54:27.343Z,11.93
2019-05-21T14:56:55.809Z,11.97
2019-05-21T14:59:24.487Z,11.91
2019-05-21T15:01:53.136Z,11.87
2019-05-21T15:04:22.112Z,11.85
2019-05-21T15:06:52.176Z,11.76
2019-05-21T15:09:21.035Z,11.84
2019-05-21T15:11:49.723Z,11.73
2019-05-21T15:14:18.394Z,11.71
2019-05-21T15:16:47.068Z,11.58
2019-05-21T15:19:15.729Z,11.63
2019-05-21T15:24:33.796Z,11.74
2019-05-21T15:27:02.489Z,11.82
2019-05-21T15:29:31.071Z,11.74
2019-05-21T15:31:59.746Z,11.72
2019-05-21T15:34:28.407Z,11.72
2019-05-21T15:36:57.084Z,11.75
2019-05-21T15:39:25.641Z,11.68
2019-05-21T15:41:54.285Z,11.77
2019-05-21T15:44:22.881Z,11.80
2019-05-21T15:46:52.126Z,11.75
2019-05-21T15:49:35.198Z,11.65
2019-05-21T15:51:52.279Z,11.72
2019-05-21T15:54:20.881Z,11.72
2019-05-21T15:56:49.544Z,11.63
2019-05-21T15:59:18.218Z,11.64
2019-05-21T16:01:46.903Z,11.52
2019-05-21T16:04:16.840Z,11.58
2019-05-21T16:06:45.959Z,11.63
2019-05-21T16:09:14.635Z,11.69
2019-05-21T16:11:43.313Z,11.60
2019-05-21T16:14:11.999Z,11.56
2019-05-21T16:16:40.627Z,11.46
2019-05-21T16:19:09.264Z,11.47
2019-05-21T16:21:57.216Z,11.52
2019-05-21T16:24:25.785Z,11.44
2019-05-21T16:26:54.543Z,11.44
2019-05-21T16:29:23.298Z,11.50
2019-05-21T16:32:31.840Z,11.54
2019-05-21T16:35:00.861Z,11.54
2019-05-21T16:37:29.504Z,11.44
2019-05-21T16:40:01.265Z,11.49
2019-05-21T16:42:29.225Z,11.53
2019-05-21T16:44:58.091Z,11.53
2019-05-21T16:47:43.543Z,11.52
2019-05-21T16:49:57.305Z,11.50
2019-05-21T16:52:25.955Z,11.43
2019-05-21T16:54:54.620Z,11.43
2019-05-21T16:59:59.146Z,11.50
2019-05-21T17:02:27.800Z,11.48
2019-05-21T17:05:15.739Z,11.49
2019-05-21T17:08:03.608Z,11.50
2019-05-21T17:10:32.222Z,11.46
2019-05-21T17:13:01.007Z,11.35
2019-05-21T17:15:29.769Z,11.44
2019-05-21T17:17:58.424Z,11.38
2019-05-21T17:20:27.112Z,11.43
2019-05-21T17:22:55.713Z,11.41
2019-05-21T17:25:24.379Z,11.50
2019-05-21T17:27:53.082Z,11.39
2019-05-21T17:30:40.991Z,11.37
2019-05-21T17:33:09.695Z,11.49
2019-05-21T17:35:38.363Z,11.47
2019-05-21T17:40:46.248Z,11.37
2019-05-21T17:43:14.931Z,11.36
2019-05-21T17:45:43.629Z,11.36
2019-05-21T17:51:09.116Z,11.24
2019-05-21T17:53:37.558Z,11.31
2019-05-21T17:56:06.284Z,11.26
2019-05-21T17:58:34.882Z,11.28
2019-05-21T18:01:22.758Z,11.37
2019-05-21T18:10:05.879Z,11.22
2019-05-21T18:12:34.534Z,11.22
2019-05-21T18:17:39.586Z,11.20
2019-05-21T18:20:48.058Z,11.23
2019-05-21T18:23:16.751Z,11.13
2019-05-21T18:25:45.369Z,11.21
2019-05-21T18:33:47.846Z,11.18
2019-05-21T18:36:16.516Z,11.24
2019-05-21T18:39:24.950Z,11.21
2019-05-21T18:41:53.731Z,11.17
2019-05-21T18:44:22.393Z,11.05
2019-05-21T18:46:51.045Z,11.10
2019-05-21T18:49:19.659Z,11.07
2019-05-21T18:51:48.242Z,11.04
2019-05-21T18:54:16.931Z,11.05
2019-05-21T18:56:45.565Z,11.05
2019-05-21T18:59:14.190Z,11.08
2019-05-21T19:01:42.843Z,11.10
2019-05-21T19:04:11.488Z,11.12
2019-05-21T19:06:40.177Z,11.08
2019-05-21T19:12:42.959Z,11.10
2019-05-21T19:15:51.461Z,11.09
2019-05-21T19:18:20.209Z,11.13
2019-05-21T19:20:50.122Z,11.06
2019-05-21T19:23:19.275Z,11.04
2019-05-21T19:25:47.890Z,11.15
2019-05-21T19:28:16.479Z,11.10
2019-05-21T19:30:45.144Z,11.03
2019-05-21T19:33:13.876Z,11.06
2019-05-21T19:35:42.715Z,11.05
2019-05-21T19:38:11.410Z,11.01
2019-05-21T19:40:40.134Z,11.08
2019-05-21T19:43:08.789Z,11.08
2019-05-21T19:45:37.494Z,11.09
2019-05-21T19:48:06.128Z,11.02
2019-05-21T19:50:42.028Z,10.95
2019-05-21T19:53:10.765Z,11.05
2019-05-21T19:58:28.594Z,11.06
2019-05-21T20:01:17.039Z,11.02
2019-05-21T20:03:45.746Z,11.00
2019-05-21T20:06:54.185Z,11.01
2019-05-21T20:11:58.434Z,11.16
2019-05-21T20:20:29.357Z,11.04
2019-05-21T20:23:37.779Z,11.09
2019-05-21T20:29:40.997Z,11.11
2019-05-21T20:34:59.018Z,11.07
2019-05-21T20:40:56.693Z,11.02
2019-05-21T20:51:49.077Z,11.06
2019-05-21T20:59:53.622Z,10.99
2019-05-21T21:03:02.354Z,10.93
2019-05-21T21:11:02.519Z,10.99
2019-05-21T21:16:20.323Z,11.06
2019-05-21T21:22:02.379Z,11.03
2019-05-21T21:24:50.465Z,11.06
2019-05-21T21:29:54.357Z,11.15
2019-05-21T21:32:23.091Z,11.07
2019-05-21T21:34:51.775Z,11.06
2019-05-21T21:37:20.450Z,11.06
2019-05-21T21:42:44.275Z,11.17
2019-05-21T21:53:51.612Z,11.02
2019-05-21T21:56:20.289Z,11.04
2019-05-21T21:58:48.945Z,10.97
2019-05-21T22:01:37.073Z,11.06
2019-05-21T22:04:45.741Z,11.03
2019-05-21T22:16:14.461Z,10.93
2019-05-21T22:27:47.304Z,10.99
2019-05-21T22:33:26.825Z,11.10
2019-05-21T22:35:55.466Z,10.93
2019-05-21T22:39:03.927Z,10.93
2019-05-21T22:41:32.489Z,10.97
2019-05-21T22:44:22.230Z,10.98
2019-05-21T22:46:51.991Z,11.08
2019-05-21T22:50:00.613Z,10.91
2019-05-21T22:52:29.343Z,10.95
2019-05-21T22:54:58.726Z,10.95
2019-05-21T22:57:27.743Z,10.91
2019-05-21T22:59:57.231Z,10.97
2019-05-21T23:03:06.038Z,10.89
2019-05-21T23:05:35.112Z,11.00
2019-05-21T23:08:04.518Z,10.95
2019-05-21T23:13:29.070Z,10.94
2019-05-21T23:16:37.662Z,10.99
2019-05-21T23:22:36.522Z,10.98
2019-05-21T23:25:45.176Z,10.98
2019-05-21T23:28:53.773Z,10.90
2019-05-21T23:37:14.864Z,10.93
2019-05-21T23:45:47.640Z,10.91
2019-05-21T23:50:52.292Z,11.09
2019-05-21T23:53:41.104Z,10.98
2019-05-21T23:56:10.195Z,10.95
2019-05-21T23:58:39.551Z,10.94
